Time;durP1;ratioP1;P1;durP2;ratioP2;P2;SDS_P1;SDS_P2;PMS_P1;PMS_P2;Temp;Humidity;BMP_temperature;BMP_pressure;BME280_temperature;BME280_humidity;BME280_pressure;Samples;Min_cycle;Max_cycle;Signal;HPM_P1;HPM_P2
2023/07/25 05:08:57;;;;;;;;;;;;;;;;;;4322793;26;19929;-46
2023/07/25 05:11:23;;;;;;;;;;;;;;;;;;5000160;28;19921;-47
2023/07/25 05:13:49;;;;;;;;;;;;;;;;;;5010979;28;19944;-46
2023/07/25 05:16:15;;;;;;;;;;;;;;;;;;5011222;28;19917;-49
2023/07/25 05:18:40;;;;;;;;;;;;;;;;;;5004547;28;20381;-46
2023/07/25 05:21:06;;;;;;;;;;;;;;;;;;4991458;28;19917;-49
2023/07/25 05:23:32;;;;;;;;;;;;;;;;;;4991399;28;19917;-47
2023/07/25 05:25:58;;;;;;;;;;;;;;;;;;4991422;28;20041;-46
2023/07/25 05:28:24;;;;;;;;;;;;;;;;;;4991100;28;19916;-46
2023/07/25 05:30:50;;;;;;;;;;;;;;;;;;4991397;28;19916;-48
2023/07/25 05:33:16;;;;;;;;;;;;;;;;;;4990961;28;19955;-48
2023/07/25 05:35:42;;;;;;;;;;;;;;;;;;4991183;28;19964;-46
2023/07/25 05:38:07;;;;;;;;;;;;;;;;;;4990897;28;19910;-47
2023/07/25 05:40:33;;;;;;;;;;;;;;;;;;4992470;28;20291;-48
2023/07/25 05:42:59;;;;;;;;;;;;;;;;;;4991818;28;19914;-47
2023/07/25 05:45:25;;;;;;;;;;;;;;;;;;4991087;28;19910;-47
2023/07/25 05:47:51;;;;;;;;;;;;;;;;;;4990784;28;19910;-47
2023/07/25 05:50:17;;;;;;;;;;;;;;;;;;4991136;28;20328;-47
2023/07/25 05:52:43;;;;;;;;;;;;;;;;;;4990615;28;19913;-47
2023/07/25 05:55:09;;;;;;;;;;;;;;;;;;5003486;28;19917;-47
2023/07/25 05:57:35;;;;;;;;;;;;;;;;;;5010307;28;20325;-45
2023/07/25 06:00:01;;;;;;;;;;;;;;;;;;5009313;28;19916;-46
2023/07/25 06:02:26;;;;;;;;;;;;;;;;;;4999595;28;20331;-47
2023/07/25 06:04:52;;;;;;;;;;;;;;;;;;5011466;28;19910;-48
2023/07/25 06:07:18;;;;;;;;;;;;;;;;;;5011266;28;19909;-46
2023/07/25 06:09:44;;;;;;;;;;;;;;;;;;5008500;28;19913;-45
2023/07/25 06:12:10;;;;;;;;;;;;;;;;;;5009788;28;20390;-47
2023/07/25 06:14:36;;;;;;;;;;;;;;;;;;5011443;28;20392;-46
2023/07/25 06:17:02;;;;;;;;;;;;;;;;;;4995195;28;19928;-46
2023/07/25 06:19:28;;;;;;;;;;;;;;;;;;4991625;28;20284;-47
2023/07/25 06:21:53;;;;;;;;;;;;;;;;;;4991511;28;19913;-48
2023/07/25 06:24:19;;;;;;;;;;;;;;;;;;4991926;28;20369;-47
2023/07/25 06:26:45;;;;;;;;;;;;;;;;;;5001509;28;19940;-47
2023/07/25 06:29:11;;;;;;;;;;;;;;;;;;5010344;28;19940;-47
2023/07/25 06:31:37;;;;;;;;;;;;;;;;;;5026492;28;19909;-48
2023/07/25 06:34:03;;;;;;;;;;;;;;;;;;5006633;28;19928;-50
2023/07/25 06:36:29;;;;;;;;;;;;;;;;;;4991434;28;19953;-48
2023/07/25 06:38:55;;;;;;;;;;;;;;;;;;4991189;28;19944;-47
2023/07/25 06:41:20;;;;;;;;;;;;;;;;;;4997435;28;19996;-47
2023/07/25 06:43:46;;;;;;;;;;;;;;;;;;4995710;28;19948;-48
2023/07/25 06:46:12;;;;;;;;;;;;;;;;;;4992943;28;19920;-46
2023/07/25 06:48:38;;;;;;;;;;;;;;;;;;5010836;28;19994;-49
2023/07/25 06:51:04;;;;;;;;;;;;;;;;;;5025644;28;20338;-47
2023/07/25 06:53:30;;;;;;;;;;;;;;;;;;5001130;28;19917;-47
2023/07/25 06:55:56;;;;;;;;;;;;;;;;;;4991676;28;20295;-47
2023/07/25 06:58:21;;;;;;;;;;;;;;;;;;4990934;28;19909;-47
2023/07/25 07:00:47;;;;;;;;;;;;;;;;;;5005060;28;19944;-48
2023/07/25 07:03:14;;;;;;;;;;;;;;;;;;4995700;28;19925;-47
2023/07/25 07:05:39;;;;;;;;;;;;;;;;;;4991367;28;19917;-48
2023/07/25 07:08:05;;;;;;;;;;;;;;;;;;4991302;28;19910;-46
2023/07/25 07:10:33;;;;;;;;;;;;;;;;;;5003525;28;20042;-47
2023/07/25 07:12:59;;;;;;;;;;;;;;;;;;5010601;28;19909;-50
2023/07/25 07:15:25;;;;;;;;;;;;;;;;;;5010751;28;19996;-51
2023/07/25 07:17:53;;;;;;;;;;;;;;;;;;5008832;28;19951;-49
2023/07/25 07:20:19;;;;;;;;;;;;;;;;;;5000981;28;20296;-49
2023/07/25 07:22:45;;;;;;;;;;;;;;;;;;5010149;28;19913;-49
2023/07/25 07:25:11;;;;;;;;;;;;;;;;;;5003287;28;19941;-51
2023/07/25 07:27:37;;;;;;;;;;;;;;;;;;5011359;28;19913;-48
2023/07/25 07:30:03;;;;;;;;;;;;;;;;;;5009176;28;19922;-47
2023/07/25 07:32:29;;;;;;;;;;;;;;;;;;5009342;28;19975;-47
2023/07/25 07:34:54;;;;;;;;;;;;;;;;;;5011022;28;19921;-50
2023/07/25 07:37:20;;;;;;;;;;;;;;;;;;5011132;28;20434;-47
2023/07/25 07:39:46;;;;;;;;;;;;;;;;;;5010112;28;19963;-49
2023/07/25 07:42:12;;;;;;;;;;;;;;;;;;5010576;28;20012;-48
2023/07/25 07:44:38;;;;;;;;;;;;;;;;;;5011537;28;19917;-49
2023/07/25 07:47:04;;;;;;;;;;;;;;;;;;5008168;28;20430;-49
2023/07/25 07:49:30;;;;;;;;;;;;;;;;;;5008501;28;20147;-47
2023/07/25 07:51:56;;;;;;;;;;;;;;;;;;5010273;28;19992;-48
2023/07/25 07:54:22;;;;;;;;;;;;;;;;;;5013275;28;19922;-46
2023/07/25 07:56:48;;;;;;;;;;;;;;;;;;5013846;28;19909;-46
2023/07/25 07:59:14;;;;;;;;;;;;;;;;;;5010294;28;19956;-46
2023/07/25 08:01:39;;;;;;;;;;;;;;;;;;5013701;28;19917;-47
2023/07/25 08:04:05;;;;;;;;;;;;;;;;;;5007056;28;20500;-50
2023/07/25 08:06:31;;;;;;;;;;;;;;;;;;5010852;28;19913;-48
2023/07/25 08:08:57;;;;;;;;;;;;;;;;;;5003869;28;19913;-46
2023/07/25 08:11:23;;;;;;;;;;;;;;;;;;5012730;28;19925;-46
2023/07/25 08:13:49;;;;;;;;;;;;;;;;;;5014130;28;20356;-46
2023/07/25 08:16:15;;;;;;;;;;;;;;;;;;5012787;28;19910;-46
2023/07/25 08:18:41;;;;;;;;;;;;;;;;;;5003070;28;19936;-47
2023/07/25 08:21:07;;;;;;;;;;;;;;;;;;5008764;28;19940;-49
2023/07/25 08:23:32;;;;;;;;;;;;;;;;;;5012994;28;20364;-47
2023/07/25 08:25:58;;;;;;;;;;;;;;;;;;5013285;28;19913;-47
2023/07/25 08:28:24;;;;;;;;;;;;;;;;;;5014099;28;19909;-47
2023/07/25 08:30:50;;;;;;;;;;;;;;;;;;5012333;28;19913;-47
2023/07/25 08:33:19;;;;;;;;;;;;;;;;;;5011662;28;20388;-47
2023/07/25 08:35:44;;;;;;;;;;;;;;;;;;5013398;28;20003;-47
2023/07/25 08:38:10;;;;;;;;;;;;;;;;;;5012836;28;20460;-47
2023/07/25 08:40:36;;;;;;;;;;;;;;;;;;5013194;28;19910;-50
2023/07/25 08:43:02;;;;;;;;;;;;;;;;;;5013198;28;20369;-47
2023/07/25 08:45:28;;;;;;;;;;;;;;;;;;5012887;28;19914;-47
2023/07/25 08:47:54;;;;;;;;;;;;;;;;;;5012682;28;19905;-48
2023/07/25 08:50:20;;;;;;;;;;;;;;;;;;5004248;28;20403;-46
2023/07/25 08:52:46;;;;;;;;;;;;;;;;;;5005793;28;19957;-46
2023/07/25 08:55:12;;;;;;;;;;;;;;;;;;5005287;28;19921;-47
2023/07/25 08:57:38;;;;;;;;;;;;;;;;;;5012863;28;19909;-47
2023/07/25 09:00:04;;;;;;;;;;;;;;;;;;5012447;28;19909;-48
2023/07/25 09:02:30;;;;;;;;;;;;;;;;;;5011776;28;20051;-47
2023/07/25 09:04:56;;;;;;;;;;;;;;;;;;4996688;28;19973;-46
2023/07/25 09:07:21;;;;;;;;;;;;;;;;;;4991710;28;19910;-47
2023/07/25 09:09:47;;;;;;;;;;;;;;;;;;5002401;28;19914;-47
2023/07/25 09:12:13;;;;;;;;;;;;;;;;;;4989987;28;19928;-47
2023/07/25 09:14:42;;;;;;;;;;;;;;;;;;4995760;28;20008;-48
2023/07/25 09:17:07;;;;;;;;;;;;;;;;;;5003224;28;19980;-47
2023/07/25 09:19:33;;;;;;;;;;;;;;;;;;5009557;28;20390;-49
2023/07/25 09:22:00;;;;;;;;;;;;;;;;;;5008754;28;19956;-48
2023/07/25 09:24:26;;;;;;;;;;;;;;;;;;5011667;28;19914;-46
2023/07/25 09:26:52;;;;;;;;;;;;;;;;;;5010616;28;19921;-50
2023/07/25 09:29:18;;;;;;;;;;;;;;;;;;5009765;28;19920;-49
2023/07/25 09:31:44;;;;;;;;;;;;;;;;;;4999837;28;19921;-49
2023/07/25 09:34:09;;;;;;;;;;;;;;;;;;5003373;28;19918;-49
2023/07/25 09:36:35;;;;;;;;;;;;;;;;;;5004913;28;19914;-47
2023/07/25 09:39:01;;;;;;;;;;;;;;;;;;4996490;28;20005;-47
2023/07/25 09:41:27;;;;;;;;;;;;;;;;;;5010133;28;19914;-47
2023/07/25 09:43:53;;;;;;;;;;;;;;;;;;5010591;28;19921;-46
2023/07/25 09:46:19;;;;;;;;;;;;;;;;;;5005585;28;19914;-47
2023/07/25 09:48:46;;;;;;;;;;;;;;;;;;4993007;28;19914;-49
2023/07/25 09:51:12;;;;;;;;;;;;;;;;;;4994117;28;19956;-47
2023/07/25 09:53:38;;;;;;;;;;;;;;;;;;4992681;28;19925;-48
2023/07/25 09:56:04;;;;;;;;;;;;;;;;;;5003918;28;20363;-47
2023/07/25 09:58:30;;;;;;;;;;;;;;;;;;5000046;28;19925;-47
2023/07/25 10:00:56;;;;;;;;;;;;;;;;;;5003347;28;20303;-47
2023/07/25 10:03:22;;;;;;;;;;;;;;;;;;5013068;28;19917;-47
2023/07/25 10:05:48;;;;;;;;;;;;;;;;;;5020391;28;19960;-47
2023/07/25 10:08:14;;;;;;;;;;;;;;;;;;5011970;28;19913;-48
2023/07/25 10:10:40;;;;;;;;;;;;;;;;;;5012014;28;19917;-50
2023/07/25 10:13:06;;;;;;;;;;;;;;;;;;4994594;28;19932;-48
2023/07/25 10:15:32;;;;;;;;;;;;;;;;;;5003198;28;20385;-46
2023/07/25 10:17:58;;;;;;;;;;;;;;;;;;4991692;28;19945;-47
2023/07/25 10:20:24;;;;;;;;;;;;;;;;;;4992420;28;19920;-46
2023/07/25 10:22:50;;;;;;;;;;;;;;;;;;4992378;28;19972;-46
2023/07/25 10:25:16;;;;;;;;;;;;;;;;;;4998134;28;19924;-47
2023/07/25 10:27:42;;;;;;;;;;;;;;;;;;5011774;28;19940;-49
2023/07/25 10:30:08;;;;;;;;;;;;;;;;;;5003521;28;19910;-49
2023/07/25 10:32:33;;;;;;;;;;;;;;;;;;5010261;28;20520;-47
2023/07/25 10:34:59;;;;;;;;;;;;;;;;;;5018159;28;19926;-47
2023/07/25 10:37:28;;;;;;;;;;;;;;;;;;4996860;28;20213;-46
2023/07/25 10:39:53;;;;;;;;;;;;;;;;;;5006136;28;19918;-46
2023/07/25 10:42:19;;;;;;;;;;;;;;;;;;4996929;28;19910;-46
2023/07/25 10:44:45;;;;;;;;;;;;;;;;;;5008980;28;20308;-46
2023/07/25 10:47:11;;;;;;;;;;;;;;;;;;5007326;28;19909;-47
2023/07/25 10:49:37;;;;;;;;;;;;;;;;;;5009048;28;19914;-46
2023/07/25 11:44:05;;;;;;;;;;;;;;;;;;5068008;28;19927;-48
2023/07/25 11:46:31;;;;;;;;;;;;;;;;;;5071049;28;19917;-48
2023/07/25 11:48:56;;;;;;;;;;;;;;;;;;5072463;28;20275;-48
2023/07/25 11:51:22;;;;;;;;;;;;;;;;;;5071507;28;19923;-50
2023/07/25 11:53:48;;;;;;;;;;;;;;;;;;5069073;28;20386;-48
2023/07/25 11:56:14;;;;;;;;;;;;;;;;;;5071117;28;19916;-50
2023/07/25 11:58:40;;;;;;;;;;;;;;;;;;5072757;28;20239;-48
2023/07/25 12:01:06;;;;;;;;;;;;;;;;;;5072682;28;19912;-48
2023/07/25 12:03:32;;;;;;;;;;;;;;;;;;5067156;28;19913;-48
2023/07/25 12:05:57;;;;;;;;;;;;;;;;;;5060634;28;19917;-49
2023/07/25 12:08:23;;;;;;;;;;;;;;;;;;5052175;28;19921;-48
2023/07/25 12:10:49;;;;;;;;;;;;;;;;;;5069014;28;19917;-48
2023/07/25 12:13:15;;;;;;;;;;;;;;;;;;5070004;28;19923;-51
2023/07/25 12:15:42;;;;;;;;;;;;;;;;;;5069276;28;19916;-48
2023/07/25 12:18:08;;;;;;;;;;;;;;;;;;5068526;28;19920;-49
2023/07/25 12:20:34;;;;;;;;;;;;;;;;;;5071045;28;19912;-48
2023/07/25 12:23:00;;;;;;;;;;;;;;;;;;5069190;28;19935;-48
2023/07/25 12:25:26;;;;;;;;;;;;;;;;;;5068302;28;20394;-52
2023/07/25 12:27:52;;;;;;;;;;;;;;;;;;5072251;28;19916;-50
2023/07/25 12:30:18;;;;;;;;;;;;;;;;;;5071450;28;19944;-48
2023/07/25 12:32:44;;;;;;;;;;;;;;;;;;5073086;28;19958;-48
2023/07/25 12:35:11;;;;;;;;;;;;;;;;;;5065253;28;19916;-49
2023/07/25 12:37:36;;;;;;;;;;;;;;;;;;5062383;28;19939;-50
2023/07/25 12:40:03;;;;;;;;;;;;;;;;;;5070748;28;20309;-54
2023/07/25 12:42:29;;;;;;;;;;;;;;;;;;5067650;28;19916;-52
2023/07/25 12:45:01;;;;;;;;;;;;;;;;;;5052791;28;20405;-50
2023/07/25 12:47:26;;;;;;;;;;;;;;;;;;5065072;28;20293;-48
2023/07/25 12:49:52;;;;;;;;;;;;;;;;;;5066846;28;19921;-51
2023/07/25 12:52:18;;;;;;;;;;;;;;;;;;5070979;28;19971;-53
2023/07/25 12:54:44;;;;;;;;;;;;;;;;;;5070229;28;20398;-50
2023/07/25 12:57:10;;;;;;;;;;;;;;;;;;5066644;28;20295;-51
2023/07/25 12:59:36;;;;;;;;;;;;;;;;;;5065126;28;19912;-51
2023/07/25 13:02:03;;;;;;;;;;;;;;;;;;5064993;28;20331;-50
2023/07/25 13:04:30;;;;;;;;;;;;;;;;;;5060598;28;19924;-51
2023/07/25 13:06:56;;;;;;;;;;;;;;;;;;5066026;28;19912;-50
2023/07/25 13:09:22;;;;;;;;;;;;;;;;;;5063246;28;19927;-50
2023/07/25 13:11:48;;;;;;;;;;;;;;;;;;5068253;28;19973;-52
2023/07/25 13:14:14;;;;;;;;;;;;;;;;;;5068502;28;19986;-50
2023/07/25 13:16:40;;;;;;;;;;;;;;;;;;5068066;28;19919;-51
2023/07/25 13:19:06;;;;;;;;;;;;;;;;;;5066808;28;20361;-50
2023/07/25 13:21:32;;;;;;;;;;;;;;;;;;5061151;28;19966;-50
2023/07/25 13:23:58;;;;;;;;;;;;;;;;;;5068198;28;19912;-50
2023/07/25 13:26:24;;;;;;;;;;;;;;;;;;5066645;28;20311;-51
2023/07/25 13:28:50;;;;;;;;;;;;;;;;;;5054477;28;19943;-51
2023/07/25 13:31:15;;;;;;;;;;;;;;;;;;5064811;28;20386;-52
2023/07/25 13:33:41;;;;;;;;;;;;;;;;;;5065915;28;19916;-49
2023/07/25 13:36:07;;;;;;;;;;;;;;;;;;5069890;28;19913;-51
2023/07/25 13:38:33;;;;;;;;;;;;;;;;;;5067696;28;19916;-49
2023/07/25 13:40:59;;;;;;;;;;;;;;;;;;5067921;28;19912;-47
2023/07/25 13:43:25;;;;;;;;;;;;;;;;;;5068656;28;20290;-50
2023/07/25 13:45:51;;;;;;;;;;;;;;;;;;5069604;28;19916;-52
2023/07/25 13:48:17;;;;;;;;;;;;;;;;;;5068460;28;19999;-49
2023/07/25 13:50:42;;;;;;;;;;;;;;;;;;5057482;28;19913;-52
2023/07/25 13:53:08;;;;;;;;;;;;;;;;;;5050111;28;20052;-52
2023/07/25 13:55:34;;;;;;;;;;;;;;;;;;5062740;28;20378;-49
2023/07/25 13:58:00;;;;;;;;;;;;;;;;;;5068772;28;19965;-49
2023/07/25 14:00:26;;;;;;;;;;;;;;;;;;5068551;28;20458;-51
2023/07/25 14:02:52;;;;;;;;;;;;;;;;;;5068555;28;19916;-49
2023/07/25 14:05:18;;;;;;;;;;;;;;;;;;5069449;28;19909;-50
2023/07/25 14:07:44;;;;;;;;;;;;;;;;;;5062679;28;19912;-51
2023/07/25 14:10:10;;;;;;;;;;;;;;;;;;5068718;28;19923;-49
2023/07/25 14:12:35;;;;;;;;;;;;;;;;;;5070050;28;19936;-48
2023/07/25 14:15:01;;;;;;;;;;;;;;;;;;5066809;28;19916;-51
2023/07/25 14:17:28;;;;;;;;;;;;;;;;;;5065068;28;20348;-49
2023/07/25 14:19:54;;;;;;;;;;;;;;;;;;5064662;28;20132;-49
2023/07/25 14:22:20;;;;;;;;;;;;;;;;;;5058148;28;20924;-48
2023/07/25 14:24:45;;;;;;;;;;;;;;;;;;5060794;28;19977;-50
2023/07/25 14:27:11;;;;;;;;;;;;;;;;;;5065964;28;20011;-50
2023/07/25 14:29:37;;;;;;;;;;;;;;;;;;5066996;28;19994;-50
2023/07/25 14:32:03;;;;;;;;;;;;;;;;;;5067554;28;19931;-49
2023/07/25 14:34:29;;;;;;;;;;;;;;;;;;5065466;28;20365;-51
2023/07/25 14:36:55;;;;;;;;;;;;;;;;;;5065323;28;20283;-50
2023/07/25 14:39:21;;;;;;;;;;;;;;;;;;5061392;28;20003;-49
2023/07/25 14:41:47;;;;;;;;;;;;;;;;;;5067404;28;20366;-51
2023/07/25 14:44:13;;;;;;;;;;;;;;;;;;5065998;28;20548;-49
2023/07/25 14:46:38;;;;;;;;;;;;;;;;;;5067306;28;19970;-50
2023/07/25 14:49:04;;;;;;;;;;;;;;;;;;5065628;28;19912;-54
2023/07/25 14:51:30;;;;;;;;;;;;;;;;;;5062524;28;20377;-55
2023/07/25 14:53:56;;;;;;;;;;;;;;;;;;5065530;28;19918;-51
2023/07/25 14:56:23;;;;;;;;;;;;;;;;;;5057559;28;19939;-50
2023/07/25 14:58:49;;;;;;;;;;;;;;;;;;5064829;28;19916;-51
2023/07/25 15:01:14;;;;;;;;;;;;;;;;;;5066236;28;19916;-51
2023/07/25 15:03:40;;;;;;;;;;;;;;;;;;5068879;28;19919;-54
2023/07/25 15:06:06;;;;;;;;;;;;;;;;;;5070287;28;19913;-55
2023/07/25 15:08:32;;;;;;;;;;;;;;;;;;5071326;28;19908;-53
2023/07/25 15:10:58;;;;;;;;;;;;;;;;;;5068103;28;19958;-55
2023/07/25 15:13:25;;;;;;;;;;;;;;;;;;5069325;28;19959;-56
2023/07/25 15:15:51;;;;;;;;;;;;;;;;;;5068811;28;19912;-54
2023/07/25 15:18:16;;;;;;;;;;;;;;;;;;5068855;28;20283;-52
2023/07/25 15:20:42;;;;;;;;;;;;;;;;;;5071363;28;19919;-54
2023/07/25 15:23:08;;;;;;;;;;;;;;;;;;5071185;28;19999;-54
2023/07/25 15:25:34;;;;;;;;;;;;;;;;;;5068358;28;20359;-53
2023/07/25 15:28:00;;;;;;;;;;;;;;;;;;5063451;28;19909;-54
2023/07/25 15:30:26;;;;;;;;;;;;;;;;;;5067605;28;19912;-53
2023/07/25 15:32:52;;;;;;;;;;;;;;;;;;5070697;28;19912;-51
2023/07/25 15:35:18;;;;;;;;;;;;;;;;;;5070132;28;19924;-51
2023/07/25 15:37:44;;;;;;;;;;;;;;;;;;5071315;28;19963;-50
2023/07/25 15:40:10;;;;;;;;;;;;;;;;;;5065343;28;19981;-50
2023/07/25 15:42:35;;;;;;;;;;;;;;;;;;5069198;28;19925;-51
2023/07/25 15:45:01;;;;;;;;;;;;;;;;;;5068117;28;20425;-50
2023/07/25 15:47:27;;;;;;;;;;;;;;;;;;5065415;28;20326;-51
2023/07/25 15:49:53;;;;;;;;;;;;;;;;;;5065721;28;19947;-51
2023/07/25 15:52:19;;;;;;;;;;;;;;;;;;5067941;28;19967;-52
2023/07/25 15:54:45;;;;;;;;;;;;;;;;;;5070284;28;19970;-51
2023/07/25 15:57:11;;;;;;;;;;;;;;;;;;5071693;28;19936;-53
2023/07/25 15:59:37;;;;;;;;;;;;;;;;;;5070808;28;19912;-53
2023/07/25 16:02:03;;;;;;;;;;;;;;;;;;5070867;28;20443;-50
2023/07/25 16:04:29;;;;;;;;;;;;;;;;;;5072613;28;20808;-51
2023/07/25 16:06:54;;;;;;;;;;;;;;;;;;5066472;28;19992;-54
2023/07/25 16:09:20;;;;;;;;;;;;;;;;;;5061019;28;19912;-50
2023/07/25 16:11:46;;;;;;;;;;;;;;;;;;5051152;28;19909;-54
2023/07/25 16:14:12;;;;;;;;;;;;;;;;;;5068634;28;19940;-53
2023/07/25 16:16:38;;;;;;;;;;;;;;;;;;5066887;28;20588;-54
2023/07/25 16:19:04;;;;;;;;;;;;;;;;;;5061203;28;19960;-52
2023/07/25 16:21:30;;;;;;;;;;;;;;;;;;5066590;28;20412;-53
2023/07/25 16:23:55;;;;;;;;;;;;;;;;;;5071466;28;19909;-53
2023/07/25 16:26:21;;;;;;;;;;;;;;;;;;5070522;28;20367;-51
2023/07/25 16:28:49;;;;;;;;;;;;;;;;;;5072025;28;19958;-51
2023/07/25 16:31:15;;;;;;;;;;;;;;;;;;5064249;28;19912;-51
2023/07/25 16:33:41;;;;;;;;;;;;;;;;;;5058697;28;20367;-54
2023/07/25 16:36:07;;;;;;;;;;;;;;;;;;5068068;28;19908;-50
2023/07/25 16:38:34;;;;;;;;;;;;;;;;;;5067840;28;19912;-51
2023/07/25 16:41:00;;;;;;;;;;;;;;;;;;5062975;28;19948;-52
2023/07/25 16:43:28;;;;;;;;;;;;;;;;;;5064948;28;20383;-50
2023/07/25 16:45:54;;;;;;;;;;;;;;;;;;5070933;28;19924;-49
2023/07/25 16:48:20;;;;;;;;;;;;;;;;;;5065766;28;19958;-50
2023/07/25 16:50:46;;;;;;;;;;;;;;;;;;5059343;28;20294;-52
2023/07/25 16:53:12;;;;;;;;;;;;;;;;;;5070043;28;19912;-49
2023/07/25 16:55:38;;;;;;;;;;;;;;;;;;5067137;28;20414;-50
2023/07/25 16:58:03;;;;;;;;;;;;;;;;;;5066178;28;19958;-51
2023/07/25 17:00:29;;;;;;;;;;;;;;;;;;5071927;28;19919;-52
2023/07/25 17:02:55;;;;;;;;;;;;;;;;;;5072019;28;19916;-52
2023/07/25 17:05:21;;;;;;;;;;;;;;;;;;5059894;28;19958;-51
2023/07/25 17:07:47;;;;;;;;;;;;;;;;;;5068407;28;19951;-49
2023/07/25 17:10:13;;;;;;;;;;;;;;;;;;5054972;28;20005;-52
2023/07/25 17:12:39;;;;;;;;;;;;;;;;;;5065925;28;19912;-52
2023/07/25 17:15:05;;;;;;;;;;;;;;;;;;5061066;28;20324;-54
2023/07/25 17:17:30;;;;;;;;;;;;;;;;;;5057440;28;20007;-53
2023/07/25 17:19:56;;;;;;;;;;;;;;;;;;5057168;28;20371;-51
2023/07/25 17:22:22;;;;;;;;;;;;;;;;;;5051397;28;19913;-53
2023/07/25 17:24:48;;;;;;;;;;;;;;;;;;5056780;28;19916;-54
2023/07/25 17:27:14;;;;;;;;;;;;;;;;;;5050951;28;19917;-52
2023/07/25 17:29:40;;;;;;;;;;;;;;;;;;5067198;28;19912;-51
2023/07/25 17:32:06;;;;;;;;;;;;;;;;;;5070791;28;20397;-54
2023/07/25 17:34:32;;;;;;;;;;;;;;;;;;5069256;28;19952;-55
2023/07/25 17:36:58;;;;;;;;;;;;;;;;;;5069766;28;20042;-53
2023/07/25 17:39:24;;;;;;;;;;;;;;;;;;5067292;28;20381;-54
2023/07/25 17:41:50;;;;;;;;;;;;;;;;;;5064588;28;19912;-54
2023/07/25 17:44:16;;;;;;;;;;;;;;;;;;5068587;28;20292;-53
2023/07/25 17:46:42;;;;;;;;;;;;;;;;;;5060774;28;19920;-53
2023/07/25 17:49:08;;;;;;;;;;;;;;;;;;5067183;28;19908;-54
2023/07/25 17:51:34;;;;;;;;;;;;;;;;;;5050560;28;19982;-54
2023/07/25 17:53:59;;;;;;;;;;;;;;;;;;5048444;28;19920;-53
2023/07/25 17:56:25;;;;;;;;;;;;;;;;;;5049709;28;20297;-54
2023/07/25 17:58:51;;;;;;;;;;;;;;;;;;5062236;28;19912;-55
2023/07/25 18:01:17;;;;;;;;;;;;;;;;;;5058947;28;19913;-55
2023/07/25 18:03:43;;;;;;;;;;;;;;;;;;5058373;28;19927;-54
2023/07/25 18:06:09;;;;;;;;;;;;;;;;;;5064804;28;19924;-54
2023/07/25 18:08:35;;;;;;;;;;;;;;;;;;5064000;28;20371;-54
2023/07/25 18:11:01;;;;;;;;;;;;;;;;;;5061702;28;19965;-52
2023/07/25 18:13:27;;;;;;;;;;;;;;;;;;5061800;28;19975;-52
2023/07/25 18:15:52;;;;;;;;;;;;;;;;;;5065032;28;19912;-51
2023/07/25 18:18:18;;;;;;;;;;;;;;;;;;5057302;28;19912;-53
2023/07/25 18:20:44;;;;;;;;;;;;;;;;;;5060287;28;20442;-54
2023/07/25 18:23:10;;;;;;;;;;;;;;;;;;5059068;28;20291;-55
2023/07/25 18:25:36;;;;;;;;;;;;;;;;;;5062655;28;19913;-55
2023/07/25 18:28:02;;;;;;;;;;;;;;;;;;5057794;28;19916;-52
2023/07/25 18:30:31;;;;;;;;;;;;;;;;;;5059817;28;19912;-53
2023/07/25 18:32:56;;;;;;;;;;;;;;;;;;5059814;28;19913;-54
2023/07/25 18:35:23;;;;;;;;;;;;;;;;;;5058625;28;19923;-51
2023/07/25 18:37:49;;;;;;;;;;;;;;;;;;5059265;28;19912;-53
2023/07/25 18:40:17;;;;;;;;;;;;;;;;;;5062408;28;20115;-52
2023/07/25 18:42:43;;;;;;;;;;;;;;;;;;5060569;28;20347;-54
2023/07/25 18:45:08;;;;;;;;;;;;;;;;;;5059732;28;19952;-54
2023/07/25 18:47:34;;;;;;;;;;;;;;;;;;5061397;28;19916;-52
2023/07/25 18:50:00;;;;;;;;;;;;;;;;;;5065221;28;19912;-53
2023/07/25 18:52:26;;;;;;;;;;;;;;;;;;5064575;28;19912;-55
2023/07/25 18:54:52;;;;;;;;;;;;;;;;;;5057606;28;19952;-51
2023/07/25 18:57:18;;;;;;;;;;;;;;;;;;5064723;28;19991;-55
2023/07/25 18:59:44;;;;;;;;;;;;;;;;;;5047421;28;20007;-52
2023/07/25 19:02:10;;;;;;;;;;;;;;;;;;5062251;28;19913;-52
2023/07/25 19:04:36;;;;;;;;;;;;;;;;;;5067131;28;19908;-55
2023/07/25 19:07:01;;;;;;;;;;;;;;;;;;5064169;28;20367;-51
2023/07/25 19:09:27;;;;;;;;;;;;;;;;;;5046626;28;19958;-50
2023/07/25 19:11:53;;;;;;;;;;;;;;;;;;5049096;28;19966;-53
2023/07/25 19:14:19;;;;;;;;;;;;;;;;;;5061791;28;19922;-52
2023/07/25 19:16:45;;;;;;;;;;;;;;;;;;5064573;28;19964;-49
2023/07/25 19:19:11;;;;;;;;;;;;;;;;;;5056501;28;20465;-53
2023/07/25 19:21:39;;;;;;;;;;;;;;;;;;5064488;28;19912;-51
2023/07/25 19:24:05;;;;;;;;;;;;;;;;;;5057742;28;20062;-53
2023/07/25 19:26:30;;;;;;;;;;;;;;;;;;5060575;28;19913;-53
2023/07/25 19:28:56;;;;;;;;;;;;;;;;;;5060389;28;19957;-49
2023/07/25 19:31:22;;;;;;;;;;;;;;;;;;5063949;28;19989;-50
2023/07/25 19:33:48;;;;;;;;;;;;;;;;;;5065035;28;19969;-50
2023/07/25 19:36:14;;;;;;;;;;;;;;;;;;5061456;28;20285;-50
2023/07/25 19:38:40;;;;;;;;;;;;;;;;;;5059345;28;19912;-50
2023/07/25 19:41:06;;;;;;;;;;;;;;;;;;5060568;28;20328;-51
2023/07/25 19:43:32;;;;;;;;;;;;;;;;;;5063665;28;19935;-48
2023/07/25 19:45:58;;;;;;;;;;;;;;;;;;5064909;28;19916;-51
2023/07/25 19:48:24;;;;;;;;;;;;;;;;;;5065564;28;19912;-49
2023/07/25 19:50:50;;;;;;;;;;;;;;;;;;5067697;28;19921;-49
2023/07/25 19:53:16;;;;;;;;;;;;;;;;;;5065194;28;20039;-53
2023/07/25 19:55:42;;;;;;;;;;;;;;;;;;5066008;28;20013;-53
2023/07/25 19:58:07;;;;;;;;;;;;;;;;;;5068371;28;19908;-54
2023/07/25 20:00:33;;;;;;;;;;;;;;;;;;5066033;28;19913;-50
2023/07/25 20:02:59;;;;;;;;;;;;;;;;;;5061689;28;19913;-53
2023/07/25 20:05:25;;;;;;;;;;;;;;;;;;5057763;28;20058;-54
2023/07/25 20:07:51;;;;;;;;;;;;;;;;;;5067451;28;20413;-52
2023/07/25 20:10:17;;;;;;;;;;;;;;;;;;5065002;28;19971;-50
2023/07/25 20:12:43;;;;;;;;;;;;;;;;;;5066032;28;19912;-54
2023/07/25 20:15:09;;;;;;;;;;;;;;;;;;5062077;28;20006;-50
2023/07/25 20:17:34;;;;;;;;;;;;;;;;;;5054326;28;19913;-52
2023/07/25 20:20:00;;;;;;;;;;;;;;;;;;5064137;28;19913;-51
2023/07/25 20:22:26;;;;;;;;;;;;;;;;;;5064144;28;19947;-53
2023/07/25 20:24:52;;;;;;;;;;;;;;;;;;5067960;28;20353;-53
2023/07/25 20:27:18;;;;;;;;;;;;;;;;;;5066821;28;20361;-49
2023/07/25 20:29:44;;;;;;;;;;;;;;;;;;5064517;28;19946;-51
2023/07/25 20:32:10;;;;;;;;;;;;;;;;;;5063447;28;19921;-51
2023/07/25 20:34:36;;;;;;;;;;;;;;;;;;5067516;28;20326;-52
2023/07/25 20:37:02;;;;;;;;;;;;;;;;;;5066748;28;20218;-48
2023/07/25 20:39:28;;;;;;;;;;;;;;;;;;5065442;28;19920;-49
2023/07/25 20:41:54;;;;;;;;;;;;;;;;;;5065267;28;20053;-49
2023/07/25 20:44:20;;;;;;;;;;;;;;;;;;5067976;28;20382;-51
2023/07/25 20:46:46;;;;;;;;;;;;;;;;;;5068990;28;19912;-52
2023/07/25 20:49:11;;;;;;;;;;;;;;;;;;5064722;28;19913;-51
2023/07/25 20:51:37;;;;;;;;;;;;;;;;;;5067302;28;19924;-48
2023/07/25 20:54:03;;;;;;;;;;;;;;;;;;5066276;28;19912;-49
2023/07/25 20:56:29;;;;;;;;;;;;;;;;;;5064344;28;20395;-52
2023/07/25 20:58:55;;;;;;;;;;;;;;;;;;5066883;28;19908;-52
2023/07/25 21:01:21;;;;;;;;;;;;;;;;;;5065416;28;19913;-50
2023/07/25 21:03:47;;;;;;;;;;;;;;;;;;5058269;28;19912;-51
2023/07/25 21:06:13;;;;;;;;;;;;;;;;;;5055805;28;19916;-51
2023/07/25 21:08:39;;;;;;;;;;;;;;;;;;5059091;28;19967;-52
2023/07/25 21:11:07;;;;;;;;;;;;;;;;;;5066444;28;19919;-51
2023/07/25 21:13:33;;;;;;;;;;;;;;;;;;5047427;28;19909;-49
2023/07/25 21:15:59;;;;;;;;;;;;;;;;;;5049135;28;19962;-50
2023/07/25 21:18:25;;;;;;;;;;;;;;;;;;5046177;28;19975;-51
2023/07/25 21:20:51;;;;;;;;;;;;;;;;;;5048437;28;19908;-50
2023/07/25 21:23:22;;;;;;;;;;;;;;;;;;5048263;28;19917;-53
2023/07/25 21:25:47;;;;;;;;;;;;;;;;;;5048813;28;19912;-52
2023/07/25 21:28:13;;;;;;;;;;;;;;;;;;5047732;28;19908;-50
2023/07/25 21:30:39;;;;;;;;;;;;;;;;;;5052669;28;19908;-49
2023/07/25 21:33:05;;;;;;;;;;;;;;;;;;5067495;28;19912;-51
2023/07/25 21:35:31;;;;;;;;;;;;;;;;;;5055095;28;20382;-49
2023/07/25 21:37:57;;;;;;;;;;;;;;;;;;5058557;28;19935;-49
2023/07/25 21:40:23;;;;;;;;;;;;;;;;;;5067354;28;19908;-49
2023/07/25 21:42:49;;;;;;;;;;;;;;;;;;5067573;28;19954;-48
2023/07/25 21:45:15;;;;;;;;;;;;;;;;;;5067519;28;20415;-53
2023/07/25 21:47:41;;;;;;;;;;;;;;;;;;5067817;28;19908;-49
2023/07/25 21:50:07;;;;;;;;;;;;;;;;;;5064806;28;19920;-49
2023/07/25 21:52:32;;;;;;;;;;;;;;;;;;5060338;28;19909;-50
2023/07/25 21:54:58;;;;;;;;;;;;;;;;;;5047016;28;20023;-51
2023/07/25 21:57:24;;;;;;;;;;;;;;;;;;5059749;28;19912;-50
2023/07/25 21:59:50;;;;;;;;;;;;;;;;;;5065734;28;19909;-52
2023/07/25 22:02:16;;;;;;;;;;;;;;;;;;5067539;28;19962;-49
2023/07/25 22:04:42;;;;;;;;;;;;;;;;;;5067035;28;19955;-49
2023/07/25 22:07:08;;;;;;;;;;;;;;;;;;5066963;28;20398;-49
2023/07/25 22:09:34;;;;;;;;;;;;;;;;;;5054015;28;20019;-51
2023/07/25 22:12:00;;;;;;;;;;;;;;;;;;5044795;28;20371;-52
2023/07/25 22:14:26;;;;;;;;;;;;;;;;;;5046518;28;19912;-52
2023/07/25 22:16:51;;;;;;;;;;;;;;;;;;5047346;28;19986;-50
2023/07/25 22:19:18;;;;;;;;;;;;;;;;;;5047176;28;19909;-54
2023/07/25 22:21:43;;;;;;;;;;;;;;;;;;5047202;28;19909;-54
2023/07/25 22:24:09;;;;;;;;;;;;;;;;;;5046476;28;20307;-53
2023/07/25 22:26:35;;;;;;;;;;;;;;;;;;5046743;28;20000;-51
2023/07/25 22:29:01;;;;;;;;;;;;;;;;;;5045051;28;20441;-54
2023/07/25 22:31:27;;;;;;;;;;;;;;;;;;5046861;28;19915;-54
2023/07/25 22:33:53;;;;;;;;;;;;;;;;;;5048065;28;20015;-51
2023/07/25 22:36:19;;;;;;;;;;;;;;;;;;5056763;28;20398;-51